Royal Slope, Washington
Current Conditions -  °F | °C
As of 12:52 AM on Sunday 23 Nov 2014 (Local Time) from KMWH Reporting Station
Clear Clear  
Wind Chill: 33°   Ceiling: Unl
Heat Index: 37°   Visibility: 10mi
Dew Point: 30°   Wind: 5mph
Humidity: 76%   Direction: 220°SW
Pressure: 30.07"   Gusts: NA
Location:  46.7797°N, 119.403°W
Report Text: KMWH 230852Z AUTO 22004KT 10SM CLR 03/M01 A3007 RMK AO2 SLP189 T00281011 51024
Loading
Personal Weather Stations






























Interactive Weather Map New forecast layout! Learn more

10-Day Weather Forecast

Advertisements
Track Severe Weather on mobile